Time;durP1;ratioP1;P1;durP2;ratioP2;P2;SDS_P1;SDS_P2;PMS_P1;PMS_P2;Temp;Humidity;BMP_temperature;BMP_pressure;BME280_temperature;BME280_humidity;BME280_pressure;Samples;Min_cycle;Max_cycle;Signal;HPM_P1;HPM_P2
2022/06/17 00:01:10;;;;;;;9.02;6.10;;;;;;;;;;5027893;28;20024;-80
2022/06/17 00:03:36;;;;;;;7.13;6.03;;;;;;;;;;5025307;28;20089;-79
2022/06/17 00:06:04;;;;;;;8.50;6.03;;;;;;;;;;5046281;28;20029;-80
2022/06/17 00:08:34;;;;;;;8.18;5.93;;;;;;;;;;5049245;28;20036;-79
2022/06/17 00:11:01;;;;;;;7.57;6.22;;;;;;;;;;5048189;28;20457;-79
2022/06/17 00:13:27;;;;;;;8.98;6.05;;;;;;;;;;5048272;28;20120;-79
2022/06/17 00:15:53;;;;;;;8.20;6.18;;;;;;;;;;5048179;28;20025;-80
2022/06/17 00:18:20;;;;;;;10.23;6.13;;;;;;;;;;5045084;28;20035;-79
2022/06/17 00:20:50;;;;;;;8.27;6.32;;;;;;;;;;5044881;28;20053;-79
2022/06/17 00:23:18;;;;;;;7.43;6.10;;;;;;;;;;5045555;28;20025;-79
2022/06/17 00:25:45;;;;;;;9.02;6.55;;;;;;;;;;5048124;28;20026;-80
2022/06/17 00:28:13;;;;;;;8.77;7.00;;;;;;;;;;5049601;28;20030;-80
2022/06/17 00:30:39;;;;;;;9.75;6.30;;;;;;;;;;5047797;28;20052;-80
2022/06/17 00:33:05;;;;;;;9.75;6.30;;;;;;;;;;5047992;28;20432;-80
2022/06/17 00:35:39;;;;;;;8.25;6.28;;;;;;;;;;5047934;28;20047;-80
2022/06/17 00:38:06;;;;;;;8.50;6.15;;;;;;;;;;5046986;28;20033;-80
2022/06/17 00:40:36;;;;;;;9.48;6.38;;;;;;;;;;5046959;28;20018;-80
2022/06/17 00:43:04;;;;;;;11.00;6.43;;;;;;;;;;5048872;28;20025;-80
2022/06/17 00:45:33;;;;;;;10.32;6.90;;;;;;;;;;5048511;28;20058;-78
2022/06/17 00:48:00;;;;;;;9.40;6.65;;;;;;;;;;5046835;28;20051;-80
2022/06/17 00:50:29;;;;;;;11.02;7.07;;;;;;;;;;5048531;28;20026;-80
2022/06/17 00:52:55;;;;;;;10.73;7.13;;;;;;;;;;5047360;28;20022;-80
2022/06/17 00:55:42;;;;;;;11.07;7.45;;;;;;;;;;5047621;28;20049;-79
2022/06/17 00:58:12;;;;;;;11.60;7.70;;;;;;;;;;5047515;28;20078;-80
2022/06/17 01:00:39;;;;;;;9.50;7.03;;;;;;;;;;5047220;28;20033;-80
2022/06/17 01:03:09;;;;;;;9.18;7.20;;;;;;;;;;5045538;28;20018;-80
2022/06/17 01:05:39;;;;;;;10.18;6.65;;;;;;;;;;5046535;28;20018;-79
2022/06/17 01:08:14;;;;;;;9.93;7.13;;;;;;;;;;5043786;28;20026;-80
2022/06/17 01:10:45;;;;;;;10.13;6.57;;;;;;;;;;5045190;28;20033;-80
2022/06/17 01:13:11;;;;;;;9.52;7.15;;;;;;;;;;5041645;28;20022;-79
2022/06/17 01:15:38;;;;;;;9.63;6.55;;;;;;;;;;5044194;28;20029;-79
2022/06/17 01:18:05;;;;;;;13.52;8.13;;;;;;;;;;5045812;28;20018;-80
2022/06/17 01:20:31;;;;;;;10.00;6.75;;;;;;;;;;5046126;28;20029;-80
2022/06/17 01:22:59;;;;;;;8.10;6.75;;;;;;;;;;5046622;28;20018;-80
2022/06/17 01:25:30;;;;;;;9.88;6.78;;;;;;;;;;5047155;28;20025;-80
2022/06/17 01:28:01;;;;;;;14.60;7.85;;;;;;;;;;5042061;28;20030;-79
2022/06/17 01:30:38;;;;;;;9.60;7.05;;;;;;;;;;5044537;28;20013;-80
2022/06/17 01:33:24;;;;;;;9.23;7.35;;;;;;;;;;5047338;28;20036;-81
2022/06/17 01:35:55;;;;;;;9.63;7.60;;;;;;;;;;5045840;28;20093;-79
2022/06/17 01:38:22;;;;;;;8.88;7.22;;;;;;;;;;5049873;28;20025;-80
2022/06/17 01:40:49;;;;;;;9.23;6.78;;;;;;;;;;5066327;28;20115;-81
2022/06/17 01:43:16;;;;;;;9.68;7.70;;;;;;;;;;5064699;28;20021;-80
2022/06/17 01:45:45;;;;;;;9.25;6.82;;;;;;;;;;5066099;28;20051;-80
2022/06/17 01:48:13;;;;;;;9.98;7.50;;;;;;;;;;5066330;28;20033;-80
2022/06/17 01:50:41;;;;;;;9.52;7.38;;;;;;;;;;5067417;28;20025;-81
2022/06/17 01:53:12;;;;;;;9.60;7.00;;;;;;;;;;5064893;28;20024;-81
2022/06/17 01:55:41;;;;;;;8.85;7.40;;;;;;;;;;5044752;28;20621;-81
2022/06/17 01:58:13;;;;;;;8.07;6.65;;;;;;;;;;5065656;28;20029;-80
2022/06/17 02:00:41;;;;;;;10.13;7.40;;;;;;;;;;5065925;28;20028;-81
2022/06/17 02:03:12;;;;;;;11.30;7.57;;;;;;;;;;5065397;28;20344;-80
2022/06/17 02:05:39;;;;;;;10.18;6.93;;;;;;;;;;5066271;28;20032;-80
2022/06/17 02:08:14;;;;;;;10.27;8.05;;;;;;;;;;5068331;28;20075;-79
2022/06/17 02:10:43;;;;;;;9.95;7.72;;;;;;;;;;5067193;28;20021;-80
2022/06/17 02:13:10;;;;;;;10.23;7.20;;;;;;;;;;5062665;28;20033;-80
2022/06/17 02:15:37;;;;;;;11.25;7.45;;;;;;;;;;5046909;28;20022;-80
2022/06/17 02:18:08;;;;;;;9.98;7.45;;;;;;;;;;5047938;28;20017;-79
2022/06/17 02:20:34;;;;;;;8.63;7.22;;;;;;;;;;5046288;28;20032;-80
2022/06/17 02:23:01;;;;;;;11.18;7.95;;;;;;;;;;5041321;28;20469;-79
2022/06/17 02:25:29;;;;;;;10.27;7.43;;;;;;;;;;5040093;28;20044;-79
2022/06/17 02:27:57;;;;;;;10.10;7.18;;;;;;;;;;5041791;28;20021;-79
2022/06/17 02:30:23;;;;;;;9.18;7.90;;;;;;;;;;5050115;28;20026;-80
2022/06/17 02:32:49;;;;;;;9.15;7.07;;;;;;;;;;5049336;28;20084;-79
2022/06/17 02:35:22;;;;;;;10.45;7.53;;;;;;;;;;5051694;28;20030;-80
2022/06/17 02:37:48;;;;;;;10.25;7.60;;;;;;;;;;5059857;28;20110;-79
2022/06/17 02:40:26;;;;;;;10.85;7.47;;;;;;;;;;5070010;28;20025;-81
2022/06/17 02:42:53;;;;;;;8.48;7.15;;;;;;;;;;5070194;28;20021;-81
2022/06/17 02:45:21;;;;;;;8.95;7.95;;;;;;;;;;5070409;28;20013;-80
2022/06/17 02:47:47;;;;;;;9.52;7.72;;;;;;;;;;5068698;28;20017;-80
2022/06/17 02:50:22;;;;;;;9.68;6.95;;;;;;;;;;5069315;28;20494;-79
2022/06/17 02:52:49;;;;;;;9.68;7.78;;;;;;;;;;5065944;28;20053;-80
2022/06/17 02:55:27;;;;;;;9.43;7.63;;;;;;;;;;5049045;28;20057;-79
2022/06/17 02:57:58;;;;;;;10.25;7.43;;;;;;;;;;5045664;28;20022;-79
2022/06/17 03:00:24;;;;;;;11.40;7.55;;;;;;;;;;5048742;28;20034;-80
2022/06/17 03:02:51;;;;;;;9.65;7.70;;;;;;;;;;5062042;28;20013;-79
2022/06/17 03:05:21;;;;;;;8.70;7.25;;;;;;;;;;5069592;28;20021;-79
2022/06/17 03:07:47;;;;;;;9.50;7.22;;;;;;;;;;5068890;28;20082;-80
2022/06/17 03:10:14;;;;;;;9.32;7.18;;;;;;;;;;5066100;28;20032;-79
2022/06/17 03:12:41;;;;;;;9.80;7.07;;;;;;;;;;5066243;28;20037;-80
2022/06/17 03:15:12;;;;;;;9.30;7.32;;;;;;;;;;5037143;28;20066;-80
2022/06/17 03:17:39;;;;;;;10.05;7.45;;;;;;;;;;5027654;28;20555;-79
2022/06/17 03:20:07;;;;;;;8.82;7.05;;;;;;;;;;5028945;28;20022;-80
2022/06/17 03:22:35;;;;;;;9.93;7.45;;;;;;;;;;5026264;28;20100;-79
2022/06/17 03:25:20;;;;;;;12.55;7.50;;;;;;;;;;5048443;28;20026;-79
2022/06/17 03:27:50;;;;;;;10.20;7.70;;;;;;;;;;5046173;28;20018;-80
2022/06/17 03:30:27;;;;;;;10.15;8.52;;;;;;;;;;5062863;28;20037;-80
2022/06/17 03:33:14;;;;;;;11.35;8.10;;;;;;;;;;5064381;28;20067;-79
2022/06/17 03:35:41;;;;;;;10.68;7.97;;;;;;;;;;5062372;28;20036;-79
2022/06/17 03:38:16;;;;;;;10.35;7.85;;;;;;;;;;5062514;28;20025;-80
2022/06/17 03:40:45;;;;;;;9.88;7.40;;;;;;;;;;5062441;28;20048;-79
2022/06/17 03:43:12;;;;;;;9.90;8.05;;;;;;;;;;5062389;28;20021;-79
2022/06/17 03:45:43;;;;;;;9.18;7.97;;;;;;;;;;5063741;28;20017;-79
2022/06/17 03:48:28;;;;;;;11.32;8.00;;;;;;;;;;5058494;28;20029;-79
2022/06/17 03:50:54;;;;;;;12.15;8.55;;;;;;;;;;5043022;28;20029;-80
2022/06/17 03:53:26;;;;;;;11.15;8.40;;;;;;;;;;5052353;28;20089;-79
2022/06/17 03:55:53;;;;;;;13.32;10.32;;;;;;;;;;5046531;28;20043;-80
2022/06/17 03:58:20;;;;;;;10.63;8.32;;;;;;;;;;5054699;28;20104;-80
2022/06/17 04:01:11;;;;;;;11.48;8.75;;;;;;;;;;5047139;28;20017;-80
2022/06/17 04:03:39;;;;;;;10.07;8.10;;;;;;;;;;5047484;28;20048;-79
2022/06/17 04:06:08;;;;;;;10.32;9.00;;;;;;;;;;5050671;28;20044;-79
2022/06/17 04:08:35;;;;;;;10.23;8.65;;;;;;;;;;5065006;28;20017;-79
2022/06/17 04:11:02;;;;;;;10.32;8.27;;;;;;;;;;5062789;28;20027;-79
2022/06/17 04:13:30;;;;;;;13.27;8.40;;;;;;;;;;5063350;28;20027;-79
2022/06/17 04:16:25;;;;;;;12.23;7.90;;;;;;;;;;5063450;28;20479;-80
2022/06/17 04:18:51;;;;;;;10.70;8.70;;;;;;;;;;5056278;28;20088;-80
2022/06/17 04:21:17;;;;;;;11.65;8.68;;;;;;;;;;5023611;28;20022;-79
2022/06/17 04:23:47;;;;;;;10.73;8.82;;;;;;;;;;5037278;28;20030;-79
2022/06/17 04:26:13;;;;;;;12.95;8.50;;;;;;;;;;5043383;28;20049;-79
2022/06/17 04:28:45;;;;;;;9.98;8.55;;;;;;;;;;5043785;28;20025;-79
2022/06/17 04:31:16;;;;;;;9.52;8.52;;;;;;;;;;5042726;28;20037;-80
2022/06/17 04:33:48;;;;;;;12.77;8.70;;;;;;;;;;5048563;28;20021;-80
2022/06/17 04:36:17;;;;;;;11.20;8.67;;;;;;;;;;5047932;28;20022;-80
2022/06/17 04:39:04;;;;;;;10.52;7.97;;;;;;;;;;5050691;28;20313;-80
2022/06/17 04:41:32;;;;;;;12.15;8.82;;;;;;;;;;5050224;28;20021;-79
2022/06/17 04:43:59;;;;;;;11.80;8.95;;;;;;;;;;5048718;28;20025;-79
2022/06/17 04:46:30;;;;;;;9.30;8.40;;;;;;;;;;5048701;28;20034;-79
2022/06/17 04:48:57;;;;;;;10.98;8.75;;;;;;;;;;5048284;28;20032;-79
2022/06/17 04:51:27;;;;;;;9.23;8.27;;;;;;;;;;5047544;28;20088;-79
2022/06/17 04:53:54;;;;;;;9.93;8.23;;;;;;;;;;5055148;28;20570;-79
2022/06/17 04:56:28;;;;;;;10.30;8.40;;;;;;;;;;5066127;28;20051;-80
2022/06/17 04:58:54;;;;;;;9.18;8.23;;;;;;;;;;5068198;28;20033;-80
2022/06/17 05:01:23;;;;;;;9.88;8.40;;;;;;;;;;5068689;28;20017;-80
2022/06/17 05:03:49;;;;;;;8.90;7.95;;;;;;;;;;5040722;28;20030;-80
2022/06/17 05:06:16;;;;;;;9.65;8.40;;;;;;;;;;5022913;28;20096;-79
2022/06/17 05:08:46;;;;;;;9.55;8.43;;;;;;;;;;5020673;28;20519;-79
2022/06/17 05:11:24;;;;;;;10.98;8.48;;;;;;;;;;5026135;28;20029;-79
2022/06/17 05:13:53;;;;;;;10.60;8.90;;;;;;;;;;5021974;28;20029;-78
2022/06/17 05:16:22;;;;;;;11.02;8.10;;;;;;;;;;5048528;28;20029;-79
2022/06/17 05:18:49;;;;;;;11.10;8.55;;;;;;;;;;5062129;28;20552;-80
2022/06/17 05:21:22;;;;;;;11.13;8.73;;;;;;;;;;5064522;28;20028;-80
2022/06/17 05:23:51;;;;;;;9.07;8.18;;;;;;;;;;5044796;28;20032;-79
2022/06/17 05:26:17;;;;;;;12.85;8.60;;;;;;;;;;5042741;28;20029;-79
2022/06/17 05:28:46;;;;;;;9.68;8.65;;;;;;;;;;5043066;28;20029;-80
2022/06/17 05:31:16;;;;;;;9.25;8.18;;;;;;;;;;5042666;28;20038;-79
2022/06/17 05:33:42;;;;;;;9.90;8.90;;;;;;;;;;5042334;28;20101;-80
2022/06/17 05:36:08;;;;;;;8.90;7.97;;;;;;;;;;5042566;28;20075;-80
2022/06/17 05:38:34;;;;;;;11.50;8.32;;;;;;;;;;5042372;28;20030;-80
2022/06/17 05:41:00;;;;;;;9.50;8.50;;;;;;;;;;5057434;28;20017;-80
2022/06/17 05:43:26;;;;;;;10.50;8.13;;;;;;;;;;5060332;28;20510;-80
2022/06/17 05:45:53;;;;;;;10.60;8.80;;;;;;;;;;5060594;28;20084;-79
2022/06/17 05:48:19;;;;;;;12.73;8.52;;;;;;;;;;5059775;28;20017;-80
2022/06/17 05:50:51;;;;;;;9.48;8.45;;;;;;;;;;5046159;28;20033;-79
2022/06/17 05:53:18;;;;;;;9.77;8.35;;;;;;;;;;5038532;28;20029;-78
2022/06/17 05:55:45;;;;;;;10.48;8.40;;;;;;;;;;5037001;28;20046;-77
2022/06/17 05:58:11;;;;;;;10.00;8.05;;;;;;;;;;5051493;28;20088;-78
2022/06/17 06:00:37;;;;;;;9.48;8.32;;;;;;;;;;5033388;28;20526;-78
2022/06/17 06:03:05;;;;;;;9.80;8.35;;;;;;;;;;5019107;28;20026;-78
2022/06/17 06:05:32;;;;;;;10.45;8.57;;;;;;;;;;5014083;28;20025;-79
2022/06/17 06:08:02;;;;;;;9.27;7.85;;;;;;;;;;5015863;28;20022;-79
2022/06/17 06:10:28;;;;;;;10.40;8.55;;;;;;;;;;5016472;28;20018;-79
2022/06/17 06:12:58;;;;;;;9.05;8.02;;;;;;;;;;5041578;28;20033;-77
2022/06/17 06:15:40;;;;;;;9.30;7.95;;;;;;;;;;5056391;28;20112;-77
2022/06/17 06:18:07;;;;;;;9.32;8.38;;;;;;;;;;5054297;28;20031;-77
2022/06/17 06:20:33;;;;;;;10.57;8.70;;;;;;;;;;5059509;28;20025;-82
2022/06/17 06:23:00;;;;;;;12.43;8.80;;;;;;;;;;5061795;28;20029;-81
2022/06/17 06:25:26;;;;;;;10.35;8.95;;;;;;;;;;5061436;28;20022;-81
2022/06/17 06:27:52;;;;;;;9.52;8.48;;;;;;;;;;5057950;28;20042;-82
2022/06/17 06:30:22;;;;;;;9.77;8.80;;;;;;;;;;5043386;28;20032;-81
2022/06/17 06:32:49;;;;;;;10.05;9.05;;;;;;;;;;5044320;28;20479;-81
2022/06/17 06:35:16;;;;;;;11.05;8.40;;;;;;;;;;5047649;28;20056;-82
2022/06/17 06:37:42;;;;;;;10.68;8.27;;;;;;;;;;5066073;28;20110;-80
2022/06/17 06:40:09;;;;;;;11.95;8.65;;;;;;;;;;5065760;28;20032;-77
2022/06/17 06:42:35;;;;;;;9.45;8.27;;;;;;;;;;5063449;28;20168;-81
2022/06/17 06:45:01;;;;;;;10.25;8.52;;;;;;;;;;5063071;28;20025;-82
2022/06/17 06:47:27;;;;;;;11.80;9.07;;;;;;;;;;5063584;28;20031;-82
2022/06/17 06:49:53;;;;;;;9.88;8.55;;;;;;;;;;5064178;28;20033;-81
2022/06/17 06:52:19;;;;;;;9.85;8.23;;;;;;;;;;5063705;28;20025;-83
2022/06/17 06:54:45;;;;;;;9.07;8.18;;;;;;;;;;5065515;28;20075;-81
2022/06/17 06:57:14;;;;;;;9.02;8.00;;;;;;;;;;5065776;28;20036;-81
2022/06/17 06:59:40;;;;;;;9.52;8.50;;;;;;;;;;5052960;28;20028;-82
2022/06/17 07:02:06;;;;;;;8.85;7.97;;;;;;;;;;5064801;28;20021;-81
2022/06/17 07:04:32;;;;;;;11.02;7.40;;;;;;;;;;5063982;28;20048;-83
2022/06/17 07:06:58;;;;;;;8.57;7.40;;;;;;;;;;5064248;28;20029;-81
2022/06/17 07:09:25;;;;;;;8.90;7.45;;;;;;;;;;5057103;28;20037;-82
2022/06/17 07:11:52;;;;;;;10.10;8.13;;;;;;;;;;5045721;28;20068;-82
2022/06/17 07:14:18;;;;;;;9.98;7.75;;;;;;;;;;5044731;28;20025;-80
2022/06/17 07:16:44;;;;;;;8.07;6.07;;;;;;;;;;5044977;28;20025;-82
2022/06/17 07:19:16;;;;;;;8.43;6.50;;;;;;;;;;5046740;28;20043;-82
2022/06/17 07:21:42;;;;;;;7.77;5.80;;;;;;;;;;5064373;28;20017;-82
2022/06/17 07:24:08;;;;;;;8.40;6.53;;;;;;;;;;5064858;28;20028;-83
2022/06/17 07:26:34;;;;;;;8.50;5.93;;;;;;;;;;5064490;28;20115;-82
2022/06/17 07:29:00;;;;;;;7.85;6.50;;;;;;;;;;5050713;28;20033;-81
2022/06/17 07:31:28;;;;;;;8.65;6.22;;;;;;;;;;5050207;28;20032;-82
2022/06/17 07:33:57;;;;;;;7.18;5.60;;;;;;;;;;5062700;28;20453;-80
2022/06/17 07:41:59;;;;;;;7.18;5.60;;;;;;;;;;5066920;28;20105;-80
2022/06/17 07:44:25;;;;;;;8.80;6.40;;;;;;;;;;5049227;28;20032;-81
2022/06/17 07:46:51;;;;;;;7.63;6.38;;;;;;;;;;5044375;28;20049;-79
2022/06/17 07:49:17;;;;;;;8.52;7.00;;;;;;;;;;5044012;28;20022;-81
2022/06/17 07:51:43;;;;;;;8.18;6.68;;;;;;;;;;5045265;28;20537;-82
2022/06/17 07:54:09;;;;;;;8.45;7.18;;;;;;;;;;5043327;28;20033;-81
2022/06/17 07:56:36;;;;;;;9.63;7.82;;;;;;;;;;5050903;28;20033;-81
2022/06/17 07:59:02;;;;;;;8.48;7.28;;;;;;;;;;5043583;28;20036;-81
2022/06/17 08:01:28;;;;;;;11.10;7.28;;;;;;;;;;5042565;28;20021;-80
2022/06/17 08:03:54;;;;;;;8.70;6.93;;;;;;;;;;5045041;28;20053;-81
2022/06/17 08:06:20;;;;;;;9.38;7.60;;;;;;;;;;5042883;28;20025;-81
2022/06/17 08:08:48;;;;;;;8.65;7.00;;;;;;;;;;5063019;28;20033;-81
2022/06/17 08:11:14;;;;;;;8.65;6.90;;;;;;;;;;5065362;28;20028;-81
2022/06/17 08:13:40;;;;;;;9.77;6.93;;;;;;;;;;5064404;28;20025;-80
2022/06/17 08:16:08;;;;;;;7.32;6.63;;;;;;;;;;5046087;28;20514;-81
2022/06/17 08:18:34;;;;;;;8.93;7.10;;;;;;;;;;5044296;28;20029;-80
2022/06/17 08:21:00;;;;;;;7.68;6.85;;;;;;;;;;5060476;28;20025;-81
2022/06/17 08:23:26;;;;;;;8.00;6.75;;;;;;;;;;5063964;28;20063;-80
2022/06/17 08:25:52;;;;;;;8.70;6.20;;;;;;;;;;5063744;28;20086;-82
2022/06/17 08:28:19;;;;;;;8.63;6.70;;;;;;;;;;5062673;28;20021;-81
2022/06/17 08:30:51;;;;;;;9.25;6.57;;;;;;;;;;5064502;28;20049;-81
2022/06/17 08:33:19;;;;;;;8.18;6.25;;;;;;;;;;5064543;28;20079;-80
2022/06/17 08:35:48;;;;;;;7.45;6.70;;;;;;;;;;5063883;28;20498;-82
2022/06/17 08:38:14;;;;;;;10.27;6.80;;;;;;;;;;5063143;28;20021;-81
2022/06/17 08:40:40;;;;;;;7.15;6.20;;;;;;;;;;5064313;28;20029;-82
2022/06/17 08:43:12;;;;;;;7.95;6.30;;;;;;;;;;5064311;28;20093;-79
2022/06/17 08:45:38;;;;;;;;;;;;;;;;;;5055109;28;20029;-81
2022/06/17 08:48:18;;;;;;;7.88;7.10;;;;;;;;;;5044026;28;19909;-81
2022/06/17 08:50:44;;;;;;;8.43;6.50;;;;;;;;;;5043866;28;20025;-80
2022/06/17 08:53:22;;;;;;;9.48;7.30;;;;;;;;;;5043208;28;20034;-80
2022/06/17 08:55:51;;;;;;;7.15;6.28;;;;;;;;;;5043141;28;20059;-82
2022/06/17 08:58:44;;;;;;;8.10;6.45;;;;;;;;;;5043648;28;20022;-82
2022/06/17 09:01:19;;;;;;;7.82;6.05;;;;;;;;;;5041119;28;20039;-81
2022/06/17 09:04:04;;;;;;;7.15;6.32;;;;;;;;;;5056021;28;20025;-79
2022/06/17 09:06:33;;;;;;;8.07;6.40;;;;;;;;;;5062190;28;20040;-82
2022/06/17 09:08:59;;;;;;;7.70;5.97;;;;;;;;;;5061994;28;20029;-81
2022/06/17 09:11:49;;;;;;;7.13;5.63;;;;;;;;;;5061527;28;20037;-79
2022/06/17 09:14:35;;;;;;;6.97;5.88;;;;;;;;;;5060278;28;20051;-82
2022/06/17 09:17:20;;;;;;;8.65;5.65;;;;;;;;;;5042777;28;20168;-81
2022/06/17 09:19:48;;;;;;;7.40;5.70;;;;;;;;;;5042638;28;20023;-81
2022/06/17 09:22:15;;;;;;;7.53;5.68;;;;;;;;;;5043518;28;20433;-81
2022/06/17 09:24:42;;;;;;;8.18;5.70;;;;;;;;;;5045888;28;20027;-80
2022/06/17 09:27:11;;;;;;;8.23;6.05;;;;;;;;;;5063515;28;20056;-81
2022/06/17 09:30:16;;;;;;;5.75;5.13;;;;;;;;;;5062781;28;20067;-80
2022/06/17 09:32:42;;;;;;;7.18;5.35;;;;;;;;;;5061558;28;20033;-80
2022/06/17 09:35:12;;;;;;;6.65;4.70;;;;;;;;;;5060938;28;20466;-78
2022/06/17 09:37:42;;;;;;;7.60;4.55;;;;;;;;;;5047033;28;20033;-81
2022/06/17 09:40:11;;;;;;;7.47;4.43;;;;;;;;;;5066508;28;20037;-80
2022/06/17 09:42:43;;;;;;;6.57;4.70;;;;;;;;;;5051499;28;20025;-78
2022/06/17 09:45:16;;;;;;;7.25;4.90;;;;;;;;;;5063401;28;20124;-81
2022/06/17 09:47:46;;;;;;;6.90;4.32;;;;;;;;;;5029573;28;20029;-81
2022/06/17 09:50:12;;;;;;;6.05;4.70;;;;;;;;;;5026092;28;20041;-79
2022/06/17 09:52:44;;;;;;;6.63;4.72;;;;;;;;;;5025029;28;20120;-80
2022/06/17 09:55:11;;;;;;;7.05;4.93;;;;;;;;;;5039887;28;20065;-80
2022/06/17 09:57:46;;;;;;;8.30;4.80;;;;;;;;;;5037387;28;20183;-81
2022/06/17 10:00:19;;;;;;;6.15;4.57;;;;;;;;;;5060042;28;20029;-80
2022/06/17 10:02:53;;;;;;;6.65;4.68;;;;;;;;;;5060721;28;20461;-82
2022/06/17 10:05:19;;;;;;;6.88;5.18;;;;;;;;;;5062576;28;20029;-80
2022/06/17 10:07:52;;;;;;;6.50;4.78;;;;;;;;;;5060479;28;20095;-82
2022/06/17 10:10:36;;;;;;;6.43;4.97;;;;;;;;;;5062150;28;20029;-81
2022/06/17 10:13:02;;;;;;;6.10;5.00;;;;;;;;;;5059322;28;20025;-78
2022/06/17 10:18:31;;;;;;;6.68;5.53;;;;;;;;;;5054156;28;20428;-82
2022/06/17 10:18:39;;;;;;;7.10;5.65;;;;;;;;;;5058842;28;20037;-81
2022/06/17 10:21:24;;;;;;;7.88;5.25;;;;;;;;;;5061998;28;20025;-80
2022/06/17 10:23:54;;;;;;;6.18;5.10;;;;;;;;;;5062100;28;20029;-81
2022/06/17 10:26:41;;;;;;;6.95;5.07;;;;;;;;;;5058627;28;20139;-80
2022/06/17 10:29:22;;;;;;;6.38;5.35;;;;;;;;;;5060832;28;20037;-82
2022/06/17 10:31:48;;;;;;;8.85;5.25;;;;;;;;;;5062042;28;20029;-77
2022/06/17 10:34:24;;;;;;;6.38;4.75;;;;;;;;;;5062374;28;20056;-80
2022/06/17 10:36:52;;;;;;;5.80;4.75;;;;;;;;;;5062905;28;20024;-81
2022/06/17 10:39:21;;;;;;;6.80;4.75;;;;;;;;;;5061266;28;20017;-81
2022/06/17 10:41:48;;;;;;;7.55;4.30;;;;;;;;;;5061828;28;20475;-81
2022/06/17 10:44:15;;;;;;;6.97;4.20;;;;;;;;;;5060002;28;20042;-81
2022/06/17 10:46:59;;;;;;;5.80;3.90;;;;;;;;;;5041864;28;20368;-80
2022/06/17 10:49:33;;;;;;;6.70;4.28;;;;;;;;;;5043408;28;20025;-78
2022/06/17 10:52:01;;;;;;;5.40;3.90;;;;;;;;;;5038683;28;20108;-77
2022/06/17 10:54:34;;;;;;;5.57;4.05;;;;;;;;;;5033960;28;20034;-78
2022/06/17 10:57:10;;;;;;;5.40;3.95;;;;;;;;;;5018364;28;20129;-78
2022/06/17 10:59:43;;;;;;;6.03;4.07;;;;;;;;;;5019108;28;20045;-78
2022/06/17 11:02:23;;;;;;;5.55;3.88;;;;;;;;;;5019563;28;20026;-77
2022/06/17 11:04:50;;;;;;;4.95;3.80;;;;;;;;;;5019784;28;20109;-78
2022/06/17 11:07:18;;;;;;;5.63;3.63;;;;;;;;;;5017852;28;20550;-77
2022/06/17 11:09:50;;;;;;;7.13;4.55;;;;;;;;;;5017772;28;20088;-79
2022/06/17 11:12:24;;;;;;;6.78;4.25;;;;;;;;;;5018624;28;20057;-77
2022/06/17 11:14:54;;;;;;;5.15;3.88;;;;;;;;;;5034984;28;20025;-81
2022/06/17 11:17:26;;;;;;;5.78;4.00;;;;;;;;;;5054206;28;20048;-79
2022/06/17 11:19:55;;;;;;;5.32;3.90;;;;;;;;;;5065110;28;20028;-80
2022/06/17 11:22:27;;;;;;;6.68;4.15;;;;;;;;;;5065134;28;20028;-80
2022/06/17 11:24:56;;;;;;;5.60;3.80;;;;;;;;;;5063426;28;20111;-81
2022/06/17 11:27:23;;;;;;;5.28;3.90;;;;;;;;;;5065209;28;20059;-81
2022/06/17 11:29:51;;;;;;;5.28;3.92;;;;;;;;;;5063497;28;20017;-81
2022/06/17 11:32:20;;;;;;;5.28;4.15;;;;;;;;;;5064931;28;20033;-80
2022/06/17 11:35:00;;;;;;;5.85;3.60;;;;;;;;;;5065924;28;20029;-79
2022/06/17 11:37:32;;;;;;;5.85;4.00;;;;;;;;;;5065255;28;20027;-80
2022/06/17 11:40:20;;;;;;;5.88;3.90;;;;;;;;;;5063024;28;20025;-80
2022/06/17 11:42:51;;;;;;;6.45;3.60;;;;;;;;;;5065149;28;20025;-81
2022/06/17 11:45:20;;;;;;;5.57;3.97;;;;;;;;;;5049906;28;20368;-78
2022/06/17 11:47:49;;;;;;;5.50;3.78;;;;;;;;;;5046100;28;20018;-79
2022/06/17 11:50:19;;;;;;;5.68;3.53;;;;;;;;;;5043594;28;20057;-80
2022/06/17 11:52:46;;;;;;;6.22;3.97;;;;;;;;;;5045201;28;20053;-81
2022/06/17 11:55:12;;;;;;;5.40;3.40;;;;;;;;;;5043755;28;20128;-81
2022/06/17 11:57:40;;;;;;;7.05;4.10;;;;;;;;;;5059466;28;20384;-81
2022/06/17 12:00:24;;;;;;;6.18;3.63;;;;;;;;;;5065257;28;20032;-80
2022/06/17 12:03:02;;;;;;;6.57;3.60;;;;;;;;;;5063291;28;20047;-81
2022/06/17 12:05:29;;;;;;;6.32;3.85;;;;;;;;;;5064898;28;20051;-82
2022/06/17 12:07:58;;;;;;;7.20;3.75;;;;;;;;;;5060302;28;20068;-80
2022/06/17 12:10:33;;;;;;;5.53;3.60;;;;;;;;;;5044831;28;20611;-81
2022/06/17 12:13:18;;;;;;;7.53;3.45;;;;;;;;;;5045003;28;20497;-81
2022/06/17 12:15:46;;;;;;;6.20;3.60;;;;;;;;;;5045189;28;20029;-82
2022/06/17 12:18:34;;;;;;;5.93;3.80;;;;;;;;;;5044016;28;20057;-80
2022/06/17 12:21:00;;;;;;;5.20;3.80;;;;;;;;;;5023239;28;20029;-82
2022/06/17 12:23:26;;;;;;;4.93;3.25;;;;;;;;;;5024312;28;20022;-82
2022/06/17 12:26:04;;;;;;;5.32;3.55;;;;;;;;;;5024097;28;20038;-83
2022/06/17 12:28:41;;;;;;;7.00;3.92;;;;;;;;;;5022872;28;20112;-81
2022/06/17 12:31:26;;;;;;;5.07;3.80;;;;;;;;;;5048430;28;20017;-81
2022/06/17 12:34:08;;;;;;;4.82;3.60;;;;;;;;;;5064069;28;20017;-82
2022/06/17 12:36:46;;;;;;;5.95;3.72;;;;;;;;;;5063420;28;20025;-82
2022/06/17 12:39:12;;;;;;;5.93;3.53;;;;;;;;;;5064828;28;20021;-82
2022/06/17 12:41:46;;;;;;;5.30;3.10;;;;;;;;;;5063991;28;20017;-82
2022/06/17 12:44:21;;;;;;;5.25;3.30;;;;;;;;;;5045059;28;20047;-81
2022/06/17 12:47:09;;;;;;;4.93;3.42;;;;;;;;;;5045567;28;20033;-81
2022/06/17 12:55:39;;;;;;;4.65;3.20;;;;;;;;;;5065527;28;20051;-80
2022/06/17 12:58:23;;;;;;;6.13;3.42;;;;;;;;;;5064045;28;20037;-80
2022/06/17 13:00:56;;;;;;;5.13;3.25;;;;;;;;;;5050546;28;20029;-82
2022/06/17 13:03:45;;;;;;;5.07;2.92;;;;;;;;;;5041654;28;20454;-80
2022/06/17 13:06:11;;;;;;;5.00;2.88;;;;;;;;;;5041739;28;20028;-80
2022/06/17 13:09:00;;;;;;;6.05;2.70;;;;;;;;;;5042638;28;20075;-81
2022/06/17 13:11:30;;;;;;;4.43;2.63;;;;;;;;;;5057897;28;20037;-81
2022/06/17 13:14:02;;;;;;;5.63;2.80;;;;;;;;;;5061193;28;20024;-80
2022/06/17 13:16:32;;;;;;;5.70;3.10;;;;;;;;;;5062871;28;20487;-79
2022/06/17 13:19:15;;;;;;;4.75;2.70;;;;;;;;;;5064054;28;20506;-81
2022/06/17 13:21:42;;;;;;;5.68;3.00;;;;;;;;;;5043566;28;20068;-80
2022/06/17 13:24:11;;;;;;;4.55;2.72;;;;;;;;;;5042579;28;20085;-81
2022/06/17 13:26:40;;;;;;;4.70;2.63;;;;;;;;;;5043439;28;20108;-78
2022/06/17 13:29:09;;;;;;;4.50;2.67;;;;;;;;;;5041521;28;20029;-82
2022/06/17 13:31:37;;;;;;;4.25;2.70;;;;;;;;;;5039911;28;20120;-80
2022/06/17 13:34:05;;;;;;;4.95;2.70;;;;;;;;;;5042259;28;20240;-82
2022/06/17 13:36:53;;;;;;;5.10;2.65;;;;;;;;;;5040743;28;20033;-81
2022/06/17 13:39:22;;;;;;;4.97;2.75;;;;;;;;;;5040902;28;20028;-82
2022/06/17 13:42:05;;;;;;;4.72;2.53;;;;;;;;;;5042119;28;20042;-80
2022/06/17 13:44:54;;;;;;;5.38;2.70;;;;;;;;;;5061597;28;20036;-80
2022/06/17 13:47:27;;;;;;;4.68;2.80;;;;;;;;;;5062063;28;20167;-81
2022/06/17 13:50:07;;;;;;;5.70;2.70;;;;;;;;;;5063205;28;20028;-81
2022/06/17 13:52:36;;;;;;;4.72;2.72;;;;;;;;;;5063197;28;20025;-81
2022/06/17 13:55:17;;;;;;;6.63;2.67;;;;;;;;;;5062009;28;20037;-79
2022/06/17 13:58:03;;;;;;;5.05;2.55;;;;;;;;;;5062107;28;20048;-79
2022/06/17 14:00:35;;;;;;;4.05;2.50;;;;;;;;;;5055235;28;20029;-80
2022/06/17 14:03:03;;;;;;;4.28;2.58;;;;;;;;;;5047619;28;20329;-80
2022/06/17 14:05:30;;;;;;;5.25;2.72;;;;;;;;;;5045619;28;20057;-81
2022/06/17 14:07:56;;;;;;;4.60;2.50;;;;;;;;;;5060006;28;20025;-80
2022/06/17 14:10:25;;;;;;;4.97;2.42;;;;;;;;;;5063378;28;20044;-80
2022/06/17 14:12:52;;;;;;;5.53;2.33;;;;;;;;;;5063710;28;20029;-81
2022/06/17 14:15:19;;;;;;;5.25;2.38;;;;;;;;;;5063218;28;20029;-80
2022/06/17 14:17:50;;;;;;;4.13;2.50;;;;;;;;;;5061150;28;20036;-80
2022/06/17 14:20:27;;;;;;;4.20;2.38;;;;;;;;;;5063034;28;20573;-81
2022/06/17 14:23:01;;;;;;;4.90;2.60;;;;;;;;;;5062272;28;20023;-81
2022/06/17 14:25:44;;;;;;;6.40;2.70;;;;;;;;;;5063412;28;20021;-81
2022/06/17 14:28:30;;;;;;;4.90;3.00;;;;;;;;;;5060937;28;20395;-81
2022/06/17 14:31:08;;;;;;;5.63;2.70;;;;;;;;;;5044048;28;20037;-80
2022/06/17 14:33:40;;;;;;;6.45;2.60;;;;;;;;;;5046024;28;20581;-82
2022/06/17 14:36:14;;;;;;;4.95;2.65;;;;;;;;;;5044851;28;20018;-80
2022/06/17 14:38:43;;;;;;;4.43;2.60;;;;;;;;;;5048738;28;20036;-81
2022/06/17 14:44:18;;;;;;;4.15;2.55;;;;;;;;;;5046195;28;20095;-80
2022/06/17 14:47:02;;;;;;;5.93;2.45;;;;;;;;;;5047351;28;20030;-80
2022/06/17 14:49:40;;;;;;;4.40;2.40;;;;;;;;;;5049806;28;20021;-82
2022/06/17 14:52:32;;;;;;;5.85;2.58;;;;;;;;;;5064668;28;20037;-79
2022/06/17 14:55:16;;;;;;;4.20;2.50;;;;;;;;;;5070399;28;20070;-81
2022/06/17 14:57:47;;;;;;;5.97;2.40;;;;;;;;;;5067323;28;20033;-80
2022/06/17 15:00:18;;;;;;;4.57;2.30;;;;;;;;;;5066590;28;20021;-81
2022/06/17 15:02:46;;;;;;;4.85;2.28;;;;;;;;;;5056873;28;20013;-80
2022/06/17 15:05:26;;;;;;;5.10;2.70;;;;;;;;;;5065920;28;20510;-78
2022/06/17 15:07:54;;;;;;;5.95;2.22;;;;;;;;;;5065820;28;20035;-80
2022/06/17 15:10:28;;;;;;;5.45;2.47;;;;;;;;;;5058014;28;20025;-81
2022/06/17 15:12:56;;;;;;;5.53;2.33;;;;;;;;;;5043991;28;20049;-81
2022/06/17 15:15:25;;;;;;;5.10;2.40;;;;;;;;;;5045300;28;20032;-80
2022/06/17 15:17:54;;;;;;;4.90;2.53;;;;;;;;;;5053374;28;20414;-81